createdAt,value
2023-05-10T00:00:49.333Z,1.1357
2023-05-10T00:01:57.432Z,1.6714
2023-05-10T00:03:05.643Z,1.1071
2023-05-10T00:04:13.621Z,0.9714
2023-05-10T00:05:21.501Z,0.3429
2023-05-10T00:06:29.470Z,0.9929
2023-05-10T00:07:37.523Z,0.8714
2023-05-10T00:08:45.712Z,0.8786
2023-05-10T00:09:53.856Z,0.5929
2023-05-10T00:11:01.860Z,0.8143
2023-05-10T00:12:09.922Z,0.9071
2023-05-10T00:13:18.048Z,2.7500
2023-05-10T00:14:26.085Z,0.7286
2023-05-10T00:15:34.048Z,0.8929
2023-05-10T00:16:42.149Z,1.3786
2023-05-10T00:17:50.178Z,0.3929
2023-05-10T00:18:58.237Z,1.5214
2023-05-10T00:20:06.198Z,2.0929
2023-05-10T00:21:14.196Z,0.7786
2023-05-10T00:22:22.253Z,0.3357
2023-05-10T00:23:30.468Z,2.6000
2023-05-10T00:24:38.474Z,0.5143
2023-05-10T00:25:46.794Z,0.9571
2023-05-10T00:26:54.944Z,0.5286
2023-05-10T00:28:02.663Z,0.7500
2023-05-10T00:29:10.702Z,0.8571
2023-05-10T00:30:19.041Z,0.5357
2023-05-10T00:31:26.863Z,1.3571
2023-05-10T00:32:34.918Z,0.7500
2023-05-10T00:33:42.922Z,1.1429
2023-05-10T00:34:50.875Z,2.2643
2023-05-10T00:35:58.896Z,0.6000
2023-05-10T00:37:06.996Z,2.5143
2023-05-10T00:38:15.227Z,1.7786
2023-05-10T00:39:23.292Z,1.0357
2023-05-10T00:40:31.341Z,1.1286
2023-05-10T00:41:39.436Z,0.7429
2023-05-10T00:42:47.589Z,0.5214
2023-05-10T00:43:55.486Z,0.9000
2023-05-10T00:45:03.529Z,1.1000
2023-05-10T00:46:11.751Z,0.8071
2023-05-10T00:47:19.644Z,0.3714
2023-05-10T00:48:27.783Z,0.6357
2023-05-10T00:49:35.620Z,2.7786
2023-05-10T00:50:43.690Z,1.6857
2023-05-10T00:51:51.721Z,1.3500
2023-05-10T00:52:59.976Z,0.5071
2023-05-10T00:54:08.023Z,1.6500
2023-05-10T00:55:16.035Z,1.8214
2023-05-10T00:56:24.086Z,0.5000
2023-05-10T00:57:32.166Z,0.7714
2023-05-10T00:58:40.319Z,0.5357
2023-05-10T00:59:48.299Z,0.7786
2023-05-10T01:00:56.426Z,0.3357
2023-05-10T01:02:04.479Z,1.2786
2023-05-10T01:03:12.582Z,2.1571
2023-05-10T01:04:20.396Z,1.0000
2023-05-10T01:05:28.478Z,1.4857
2023-05-10T01:06:36.476Z,1.8571
2023-05-10T01:07:44.708Z,1.5000
2023-05-10T01:08:52.724Z,0.9857
2023-05-10T01:10:00.800Z,0.3857
2023-05-10T01:11:08.861Z,0.7000
2023-05-10T01:12:16.979Z,0.5429
2023-05-10T01:13:25.008Z,0.5786
2023-05-10T01:14:33.144Z,1.9429
2023-05-10T01:15:41.147Z,1.2286
2023-05-10T01:16:49.106Z,1.4286
2023-05-10T01:17:57.209Z,1.7714
2023-05-10T01:19:05.089Z,0.6714
2023-05-10T01:20:13.190Z,0.8357
2023-05-10T01:21:21.259Z,0.4571
2023-05-10T01:22:29.407Z,1.2214
2023-05-10T01:23:37.456Z,1.3071
2023-05-10T01:24:45.502Z,1.3143
2023-05-10T01:25:53.573Z,1.3286
2023-05-10T01:27:01.654Z,1.6714
2023-05-10T01:28:09.672Z,1.9857
2023-05-10T01:29:17.758Z,1.3000
2023-05-10T01:30:25.909Z,1.3857
2023-05-10T01:31:33.959Z,0.8571
2023-05-10T01:32:42.136Z,1.3929
2023-05-10T01:33:49.834Z,0.7643
2023-05-10T01:34:57.887Z,1.7286
2023-05-10T01:36:05.940Z,1.5714
2023-05-10T01:37:14.134Z,2.5500
2023-05-10T01:38:22.207Z,2.1357
2023-05-10T01:39:30.236Z,2.2714
2023-05-10T01:40:38.289Z,0.9357
2023-05-10T01:41:46.384Z,2.0000
2023-05-10T01:42:54.402Z,0.8214
2023-05-10T01:44:02.435Z,1.6714
2023-05-10T01:45:10.496Z,1.9143
2023-05-10T01:46:18.673Z,1.5286
2023-05-10T01:47:26.707Z,1.8143
2023-05-10T01:48:34.540Z,1.7786
2023-05-10T01:49:42.574Z,0.7143
2023-05-10T01:50:50.665Z,1.2429
2023-05-10T01:51:58.901Z,1.1357
2023-05-10T01:53:06.942Z,1.4643
2023-05-10T01:54:14.983Z,0.7500
2023-05-10T01:55:23.039Z,1.4214
2023-05-10T01:56:31.193Z,0.7143
2023-05-10T01:57:39.176Z,1.8786
2023-05-10T01:58:47.292Z,0.9857
2023-05-10T01:59:55.258Z,1.3571
2023-05-10T02:01:03.398Z,0.8357
2023-05-10T02:02:11.379Z,0.8714
2023-05-10T02:03:19.303Z,1.0429
2023-05-10T02:04:27.317Z,1.2714
2023-05-10T02:05:35.390Z,2.3929
2023-05-10T02:06:43.658Z,1.5786
2023-05-10T02:07:51.601Z,1.4357
2023-05-10T02:08:59.727Z,1.2786
2023-05-10T02:10:07.731Z,1.1143
2023-05-10T02:11:15.802Z,1.2786
2023-05-10T02:12:23.992Z,1.1357
2023-05-10T02:13:31.983Z,2.2000
2023-05-10T02:14:39.934Z,1.8857
2023-05-10T02:15:48.000Z,1.1500
2023-05-10T02:16:56.186Z,1.9357
2023-05-10T02:18:04.256Z,2.3429
2023-05-10T02:19:12.043Z,2.1000
2023-05-10T02:20:20.327Z,1.5429
2023-05-10T02:21:28.160Z,1.3929
2023-05-10T02:22:36.364Z,1.6786
2023-05-10T02:23:44.475Z,0.7357
2023-05-10T02:24:52.464Z,1.6857
2023-05-10T02:26:00.737Z,2.4714
2023-05-10T02:27:08.559Z,1.3214
2023-05-10T02:28:16.715Z,2.1357
2023-05-10T02:29:24.724Z,1.4929
2023-05-10T02:30:32.873Z,1.6214
2023-05-10T02:31:41.331Z,1.5643
2023-05-10T02:32:48.795Z,1.2214
2023-05-10T02:33:56.795Z,2.3286
2023-05-10T02:35:04.880Z,1.0357
2023-05-10T02:36:13.052Z,1.5000
2023-05-10T02:37:21.211Z,2.7786
2023-05-10T02:38:29.258Z,1.8071
2023-05-10T02:39:37.261Z,1.4143
2023-05-10T02:40:45.269Z,1.0571
2023-05-10T02:41:53.398Z,3.7857
2023-05-10T02:43:01.416Z,0.8500
2023-05-10T02:44:09.692Z,0.7429
2023-05-10T02:45:17.609Z,0.8500
2023-05-10T02:46:25.790Z,2.1857
2023-05-10T02:47:33.624Z,1.5571
2023-05-10T02:48:41.535Z,1.2571
2023-05-10T02:49:49.583Z,1.7071
2023-05-10T02:50:57.886Z,1.1643
2023-05-10T02:52:10.735Z,0.6000
2023-05-10T02:53:19.019Z,2.9143
2023-05-10T02:54:26.833Z,1.5571
2023-05-10T02:55:34.921Z,1.3714
2023-05-10T02:56:42.984Z,1.6929
2023-05-10T02:57:50.981Z,1.2857
2023-05-10T02:58:59.102Z,1.0857
2023-05-10T03:00:07.109Z,0.8571
2023-05-10T03:01:15.053Z,0.8500
2023-05-10T03:02:23.146Z,1.4929
2023-05-10T03:03:31.120Z,2.3071
2023-05-10T03:04:39.433Z,2.7143
2023-05-10T03:05:47.353Z,2.4286
2023-05-10T03:06:55.441Z,2.0500
2023-05-10T03:08:03.599Z,1.4857
2023-05-10T03:09:11.679Z,1.6286
2023-05-10T03:10:19.726Z,0.9929
2023-05-10T03:11:27.673Z,1.5643
2023-05-10T03:12:35.695Z,1.4286
2023-05-10T03:13:43.825Z,2.3143
2023-05-10T03:14:51.990Z,0.9143
2023-05-10T03:15:59.782Z,3.7071
2023-05-10T03:17:07.803Z,2.1500
2023-05-10T03:18:15.925Z,1.6429
2023-05-10T03:19:24.185Z,1.6500
2023-05-10T03:20:32.182Z,3.5357
2023-05-10T03:21:40.262Z,1.6143
2023-05-10T03:22:48.109Z,2.3429
2023-05-10T03:23:56.345Z,2.2071
2023-05-10T03:25:04.524Z,1.9286
2023-05-10T03:26:12.393Z,1.9000
2023-05-10T03:27:20.472Z,2.7857
2023-05-10T03:28:28.654Z,2.9571
2023-05-10T03:29:36.620Z,1.4357
2023-05-10T03:30:44.506Z,1.8714
2023-05-10T03:31:52.684Z,2.5000
2023-05-10T03:33:00.785Z,3.7643
2023-05-10T03:34:08.861Z,1.2429
2023-05-10T03:35:16.987Z,1.9500
2023-05-10T03:36:24.945Z,2.4786
2023-05-10T03:37:32.971Z,1.6571
2023-05-10T03:38:41.078Z,2.4857
2023-05-10T03:39:49.210Z,1.2643
2023-05-10T03:40:57.468Z,1.8429
2023-05-10T03:42:05.290Z,1.8071
2023-05-10T03:43:13.323Z,2.5500
2023-05-10T03:44:21.412Z,2.0929
2023-05-10T03:45:29.254Z,3.0071
2023-05-10T03:46:37.388Z,1.4500
2023-05-10T03:47:45.505Z,2.5714
2023-05-10T03:48:53.578Z,1.5929
2023-05-10T03:50:01.678Z,2.4071
2023-05-10T03:51:09.835Z,2.2143
2023-05-10T03:52:17.921Z,2.1714
2023-05-10T03:53:26.161Z,1.7929
2023-05-10T03:54:34.000Z,2.6357
2023-05-10T03:55:41.978Z,2.5000
2023-05-10T03:56:50.033Z,1.8357
2023-05-10T03:57:58.128Z,2.1571
2023-05-10T03:59:06.041Z,1.5929
2023-05-10T04:00:14.046Z,3.3286
2023-05-10T04:01:22.021Z,2.5857
2023-05-10T04:02:30.213Z,1.5357
2023-05-10T04:03:38.383Z,3.9571
2023-05-10T04:04:46.383Z,1.4286
2023-05-10T04:05:54.367Z,2.1786
2023-05-10T04:07:02.436Z,2.5714
2023-05-10T04:08:10.449Z,1.9357
2023-05-10T04:09:18.567Z,1.5714
2023-05-10T04:10:26.672Z,2.4286
2023-05-10T04:11:34.799Z,1.4643
2023-05-10T04:12:42.836Z,3.2357
2023-05-10T04:13:50.766Z,2.3286
2023-05-10T04:14:58.703Z,2.8857
2023-05-10T04:16:06.843Z,1.7929
2023-05-10T04:17:14.905Z,1.5714
2023-05-10T04:18:23.025Z,2.4786
2023-05-10T04:19:31.105Z,2.5500
2023-05-10T04:20:39.140Z,2.3500
2023-05-10T04:21:47.181Z,1.7071
2023-05-10T04:22:55.237Z,1.7571
2023-05-10T04:24:03.155Z,4.3286
2023-05-10T04:25:11.521Z,3.8500
2023-05-10T04:26:19.411Z,2.6500
2023-05-10T04:27:27.517Z,2.0929
2023-05-10T04:28:35.532Z,1.3571
2023-05-10T04:29:43.511Z,1.7000
2023-05-10T04:30:51.545Z,2.6143
2023-05-10T04:31:59.567Z,1.7429
2023-05-10T04:33:07.889Z,2.6143
2023-05-10T04:34:15.806Z,2.6214
2023-05-10T04:35:23.873Z,2.7929
2023-05-10T04:36:31.933Z,2.5286
2023-05-10T04:37:39.949Z,2.6500
2023-05-10T04:38:48.077Z,2.6071
2023-05-10T04:39:56.114Z,3.9429
2023-05-10T04:41:04.164Z,2.1214
2023-05-10T04:42:12.454Z,2.4429
2023-05-10T04:43:20.247Z,1.9500
2023-05-10T04:44:28.181Z,2.2143
2023-05-10T04:45:36.225Z,1.5786
2023-05-10T04:46:44.361Z,1.6857
2023-05-10T04:47:52.713Z,1.3643
2023-05-10T04:49:00.562Z,1.5500
2023-05-10T04:50:08.697Z,1.5071
2023-05-10T04:51:16.765Z,1.8571
2023-05-10T04:52:24.763Z,1.6857
2023-05-10T04:53:32.886Z,1.1429
2023-05-10T04:54:41.051Z,2.7071
2023-05-10T04:55:49.090Z,1.7786
2023-05-10T04:56:57.058Z,1.3857
2023-05-10T04:58:05.051Z,1.5786
2023-05-10T04:59:13.019Z,2.2929
2023-05-10T05:00:21.046Z,3.3643
2023-05-10T05:01:29.263Z,1.5643
2023-05-10T05:02:37.397Z,2.1571
2023-05-10T05:03:45.679Z,1.1429
2023-05-10T05:04:53.406Z,1.0357
2023-05-10T05:06:01.578Z,1.3500
2023-05-10T05:07:09.536Z,1.9000
2023-05-10T05:08:17.672Z,1.8286
2023-05-10T05:09:25.650Z,1.4071
2023-05-10T05:10:33.825Z,1.7143
2023-05-10T05:11:41.815Z,1.2714
2023-05-10T05:12:49.841Z,1.5429
2023-05-10T05:13:57.755Z,1.6571
2023-05-10T05:15:07.849Z,2.2786
2023-05-10T05:16:18.852Z,2.4533
2023-05-10T05:17:26.988Z,1.6000
2023-05-10T05:18:34.971Z,1.7571
2023-05-10T05:19:42.983Z,1.5429
2023-05-10T05:20:51.061Z,1.1786
2023-05-10T05:21:59.105Z,1.7143
2023-05-10T05:23:07.239Z,1.2929
2023-05-10T05:24:15.238Z,2.5571
2023-05-10T05:25:23.169Z,2.6143
2023-05-10T05:26:31.469Z,2.0286
2023-05-10T05:27:39.339Z,1.4857
2023-05-10T05:28:47.362Z,1.5571
2023-05-10T05:29:55.380Z,2.0929
2023-05-10T05:31:03.540Z,2.4714
2023-05-10T05:32:11.610Z,1.5786
2023-05-10T05:33:19.768Z,1.3071
2023-05-10T05:34:27.747Z,1.2714
2023-05-10T05:35:35.814Z,1.8357
2023-05-10T05:36:43.831Z,1.7071
2023-05-10T05:37:52.088Z,1.2786
2023-05-10T05:39:00.041Z,1.9071
2023-05-10T05:40:07.998Z,2.5357
2023-05-10T05:41:16.100Z,1.4714
2023-05-10T05:42:24.014Z,1.8429
2023-05-10T05:43:32.016Z,1.7857
2023-05-10T05:44:40.127Z,2.6500
2023-05-10T05:45:48.309Z,2.5286
2023-05-10T05:46:56.631Z,2.7357
2023-05-10T05:48:04.499Z,1.6929
2023-05-10T05:49:12.449Z,2.0714
2023-05-10T05:50:20.556Z,1.9500
2023-05-10T05:51:28.595Z,1.5286
2023-05-10T05:52:36.643Z,1.8429
2023-05-10T05:53:44.740Z,2.7857
2023-05-10T05:54:52.754Z,1.1357
2023-05-10T05:56:00.854Z,2.9357
2023-05-10T05:57:08.739Z,1.1500
2023-05-10T05:58:16.825Z,1.0786
2023-05-10T05:59:24.904Z,1.5429
2023-05-10T06:00:33.149Z,2.1214
2023-05-10T06:01:41.168Z,1.9143
2023-05-10T06:02:49.326Z,1.7500
2023-05-10T06:03:57.323Z,1.5929
2023-05-10T06:05:05.339Z,2.9571
2023-05-10T06:06:13.385Z,1.9786
2023-05-10T06:07:21.422Z,2.5786
2023-05-10T06:08:29.600Z,3.7857
2023-05-10T06:09:37.524Z,1.6500
2023-05-10T06:10:45.589Z,1.9286
2023-05-10T06:11:53.530Z,1.3786
2023-05-10T06:13:01.594Z,5.3286
2023-05-10T06:14:09.683Z,2.0143
2023-05-10T06:15:18.066Z,1.9643
2023-05-10T06:16:26.050Z,2.0286
2023-05-10T06:17:34.006Z,2.5786
2023-05-10T06:18:42.002Z,3.9571
2023-05-10T06:19:50.128Z,2.7357
2023-05-10T06:20:58.204Z,2.9429
2023-05-10T06:22:06.224Z,1.4357
2023-05-10T06:23:14.459Z,2.4214
2023-05-10T06:24:22.348Z,2.7000
2023-05-10T06:25:30.358Z,2.2143
2023-05-10T06:26:38.297Z,1.8929
2023-05-10T06:27:49.766Z,3.0357
2023-05-10T06:28:59.456Z,2.6200
2023-05-10T06:30:13.071Z,1.3214
2023-05-10T06:31:20.387Z,1.8000
2023-05-10T06:32:28.518Z,2.4643
2023-05-10T06:33:36.532Z,3.9786
2023-05-10T06:34:44.687Z,2.0786
2023-05-10T06:35:52.662Z,2.7071
2023-05-10T06:37:00.852Z,1.7214
2023-05-10T06:38:08.769Z,1.3143
2023-05-10T06:39:16.699Z,0.9714
2023-05-10T06:40:24.933Z,1.9571
2023-05-10T06:41:32.785Z,1.4357
2023-05-10T06:42:41.184Z,1.1571
2023-05-10T06:43:49.084Z,1.3214
2023-05-10T06:44:57.323Z,0.7714
2023-05-10T06:46:05.242Z,1.5786
2023-05-10T06:47:13.218Z,0.8786
2023-05-10T06:48:21.308Z,1.3857
2023-05-10T06:49:29.365Z,0.9786
2023-05-10T06:50:37.407Z,1.9429
2023-05-10T06:51:45.455Z,0.9357
2023-05-10T06:52:53.530Z,1.0714
2023-05-10T06:54:01.460Z,1.3357
2023-05-10T06:55:09.513Z,0.9357
2023-05-10T06:56:17.602Z,1.2714
2023-05-10T06:57:31.794Z,0.9071
2023-05-10T06:58:38.692Z,0.8933
2023-05-10T06:59:46.752Z,1.0000
2023-05-10T07:00:54.831Z,1.0929
2023-05-10T07:02:02.899Z,1.1857
2023-05-10T07:03:11.038Z,1.0786
2023-05-10T07:04:19.223Z,1.6214
2023-05-10T07:05:27.053Z,1.2857
2023-05-10T07:06:35.169Z,1.2000
2023-05-10T07:07:43.072Z,0.9929
2023-05-10T07:08:51.091Z,0.9857
2023-05-10T07:09:59.128Z,1.5929
2023-05-10T07:11:07.327Z,1.2500
2023-05-10T07:12:16.046Z,0.6571
2023-05-10T07:13:23.651Z,1.0714
2023-05-10T07:14:31.511Z,1.7643
2023-05-10T07:15:39.580Z,0.6786
2023-05-10T07:16:47.654Z,1.4286
2023-05-10T07:17:55.711Z,1.0643
2023-05-10T07:19:03.792Z,1.1286
2023-05-10T07:20:11.954Z,1.9143
2023-05-10T07:21:20.009Z,2.0214
2023-05-10T07:22:27.809Z,2.1071
2023-05-10T07:23:35.894Z,1.6929
2023-05-10T07:24:43.901Z,1.6071
2023-05-10T07:25:52.104Z,1.2286
2023-05-10T07:27:00.261Z,1.9214
2023-05-10T07:28:08.197Z,2.4571
2023-05-10T07:29:16.411Z,2.5429
2023-05-10T07:30:24.413Z,0.9500
2023-05-10T07:31:32.429Z,0.8071
2023-05-10T07:32:40.596Z,1.6714
2023-05-10T07:33:48.538Z,0.7643
2023-05-10T07:34:56.628Z,0.8857
2023-05-10T07:36:04.626Z,0.6571
2023-05-10T07:37:12.583Z,0.8857
2023-05-10T07:38:20.633Z,1.4429
2023-05-10T07:39:28.690Z,1.1071
2023-05-10T07:40:36.927Z,1.8929
2023-05-10T07:41:45.199Z,2.0643
2023-05-10T07:42:53.038Z,2.1286
2023-05-10T07:44:01.063Z,1.9857
2023-05-10T07:45:09.247Z,2.0571
2023-05-10T07:46:17.510Z,1.7000
2023-05-10T07:47:25.330Z,1.4071
2023-05-10T07:48:33.368Z,2.2143
2023-05-10T07:49:41.367Z,2.0143
2023-05-10T07:50:49.429Z,1.5571
2023-05-10T07:51:57.342Z,1.8500
2023-05-10T07:53:05.476Z,1.5071
2023-05-10T07:54:13.469Z,1.9357
2023-05-10T07:55:21.664Z,1.8000
2023-05-10T07:56:29.778Z,2.0714
2023-05-10T07:57:37.876Z,2.2500
2023-05-10T07:58:45.891Z,2.7714
2023-05-10T07:59:53.938Z,2.2000
2023-05-10T08:01:02.075Z,3.3143
2023-05-10T08:02:10.035Z,2.6286
2023-05-10T08:03:18.208Z,2.5857
2023-05-10T08:04:26.238Z,2.8286
2023-05-10T08:05:35.807Z,2.6571
2023-05-10T08:06:47.140Z,3.1133
2023-05-10T08:07:55.056Z,3.4500
2023-05-10T08:09:03.153Z,3.7214
2023-05-10T08:10:11.283Z,4.4000
2023-05-10T08:11:19.372Z,2.9500
2023-05-10T08:12:27.406Z,2.4214
2023-05-10T08:13:35.561Z,2.5786
2023-05-10T08:14:43.602Z,3.1786
2023-05-10T08:15:51.823Z,3.4214
2023-05-10T08:16:59.807Z,1.8214
2023-05-10T08:18:07.873Z,2.1857
2023-05-10T08:19:15.813Z,1.8786
2023-05-10T08:20:23.819Z,1.9571
2023-05-10T08:21:31.848Z,2.3000
2023-05-10T08:22:39.792Z,4.1214
2023-05-10T08:23:47.900Z,2.4929
2023-05-10T08:24:56.268Z,3.1143
2023-05-10T08:26:04.131Z,3.6571
2023-05-10T08:27:12.222Z,1.9000
2023-05-10T08:28:20.261Z,1.7357
2023-05-10T08:29:30.440Z,2.3429
2023-05-10T08:30:41.449Z,1.9867
2023-05-10T08:31:49.343Z,2.3429
2023-05-10T08:32:57.352Z,2.3786
2023-05-10T08:34:05.385Z,4.3929
2023-05-10T08:35:13.337Z,3.4071
2023-05-10T08:36:21.359Z,3.7000
2023-05-10T08:37:29.400Z,3.3143
2023-05-10T08:38:37.643Z,2.4429
2023-05-10T08:39:45.736Z,2.8429
2023-05-10T08:40:53.738Z,1.5500
2023-05-10T08:42:01.784Z,3.7429
2023-05-10T08:43:09.849Z,3.0714
2023-05-10T08:44:17.881Z,4.0071
2023-05-10T08:45:26.009Z,2.7286
2023-05-10T08:46:34.033Z,2.8286
2023-05-10T08:47:42.069Z,2.4571
2023-05-10T08:48:50.173Z,2.5571
2023-05-10T08:49:58.078Z,11.1071
2023-05-10T08:51:06.095Z,3.0571
2023-05-10T08:52:14.141Z,3.5571
2023-05-10T08:53:22.378Z,1.4857
2023-05-10T08:54:30.417Z,2.3714
2023-05-10T08:55:38.451Z,2.3571
2023-05-10T08:56:49.199Z,3.6214
2023-05-10T08:57:59.475Z,1.7067
2023-05-10T08:59:07.578Z,3.3786
2023-05-10T09:00:15.703Z,5.1786
2023-05-10T09:01:23.710Z,2.3929
2023-05-10T09:02:31.774Z,2.6500
2023-05-10T09:03:39.828Z,3.9857
2023-05-10T09:04:47.902Z,3.6071
2023-05-10T09:05:55.809Z,4.7857
2023-05-10T09:07:03.829Z,3.9571
2023-05-10T09:08:12.150Z,3.2714
2023-05-10T09:09:20.170Z,3.2429
2023-05-10T09:10:28.224Z,3.1786
2023-05-10T09:11:36.194Z,2.7786
2023-05-10T09:12:44.260Z,2.2643
2023-05-10T09:13:52.301Z,3.2357
2023-05-10T09:15:00.584Z,3.1500
2023-05-10T09:16:20.342Z,3.5429
2023-05-10T09:17:21.299Z,1.8600
2023-05-10T09:18:29.322Z,3.8643
2023-05-10T09:19:37.333Z,2.6571
2023-05-10T09:20:45.623Z,2.7786
2023-05-10T09:21:53.593Z,2.6000
2023-05-10T09:23:01.634Z,3.5214
2023-05-10T09:24:09.722Z,3.8929
2023-05-10T09:25:18.121Z,3.1357
2023-05-10T09:26:25.861Z,3.4429
2023-05-10T09:27:33.887Z,3.5429
2023-05-10T09:28:41.931Z,3.7429
2023-05-10T09:29:50.058Z,3.2714
2023-05-10T09:30:58.124Z,2.0214
2023-05-10T09:32:05.956Z,2.3429
2023-05-10T09:33:14.062Z,4.1214
2023-05-10T09:34:22.130Z,3.0714
2023-05-10T09:35:30.342Z,2.1286
2023-05-10T09:36:38.492Z,3.4714
2023-05-10T09:37:46.402Z,4.3143
2023-05-10T09:38:54.493Z,4.3357
2023-05-10T09:40:02.482Z,3.0857
2023-05-10T09:41:10.694Z,3.0857
2023-05-10T09:42:18.633Z,4.4071
2023-05-10T09:43:26.672Z,2.9500
2023-05-10T09:44:34.748Z,3.6286
2023-05-10T09:45:42.799Z,3.3214
2023-05-10T09:46:50.739Z,3.1571
2023-05-10T09:47:58.790Z,3.7786
2023-05-10T09:49:06.787Z,5.3071
2023-05-10T09:50:14.983Z,1.9071
2023-05-10T09:51:23.130Z,5.5071
2023-05-10T09:52:31.086Z,2.6571
2023-05-10T09:53:39.160Z,4.0857
2023-05-10T09:54:47.212Z,4.9214
2023-05-10T09:55:55.316Z,2.8286
2023-05-10T09:57:03.318Z,2.8786
2023-05-10T09:58:11.659Z,3.1000
2023-05-10T09:59:19.423Z,4.4357
2023-05-10T10:00:27.613Z,3.7857
2023-05-10T10:01:35.500Z,4.0929
2023-05-10T10:02:43.513Z,3.2357
2023-05-10T10:03:51.522Z,4.1429
2023-05-10T10:04:59.895Z,4.2000
2023-05-10T10:06:15.901Z,5.8143
2023-05-10T10:07:20.678Z,5.7867
2023-05-10T10:08:28.736Z,3.6643
2023-05-10T10:09:36.770Z,5.3143
2023-05-10T10:10:46.017Z,4.9214
2023-05-10T10:11:53.001Z,7.1000
2023-05-10T10:13:00.963Z,3.9786
2023-05-10T10:14:09.059Z,4.8071
2023-05-10T10:15:17.105Z,6.3571
2023-05-10T10:16:25.021Z,3.8857
2023-05-10T10:17:33.097Z,2.9786
2023-05-10T10:18:41.308Z,3.7071
2023-05-10T10:19:49.310Z,3.3000
2023-05-10T10:20:57.421Z,4.5143
2023-05-10T10:22:05.539Z,4.4571
2023-05-10T10:23:15.170Z,4.2643
2023-05-10T10:24:26.395Z,4.0333
2023-05-10T10:25:34.602Z,3.6143
2023-05-10T10:26:42.515Z,3.5571
2023-05-10T10:27:50.596Z,2.3714
2023-05-10T10:28:58.501Z,3.4071
2023-05-10T10:30:06.546Z,3.7286
2023-05-10T10:31:14.713Z,4.1571
2023-05-10T10:32:22.800Z,5.0786
2023-05-10T10:33:30.996Z,2.5500
2023-05-10T10:34:38.905Z,3.0500
2023-05-10T10:35:46.982Z,4.5643
2023-05-10T10:36:55.006Z,3.2786
2023-05-10T10:38:03.141Z,3.2357
2023-05-10T10:39:11.146Z,3.1929
2023-05-10T10:40:19.275Z,5.4714
2023-05-10T10:41:27.222Z,3.2714
2023-05-10T10:42:35.351Z,2.9643
2023-05-10T10:43:43.244Z,3.6214
2023-05-10T10:44:51.278Z,4.0929
2023-05-10T10:45:59.362Z,2.4786
2023-05-10T10:47:07.728Z,4.1357
2023-05-10T10:48:15.636Z,2.1143
2023-05-10T10:49:23.628Z,3.8357
2023-05-10T10:50:31.809Z,2.8357
2023-05-10T10:51:39.915Z,3.2786
2023-05-10T10:52:48.002Z,3.1786
2023-05-10T10:53:55.851Z,3.9071
2023-05-10T10:55:04.118Z,2.9714
2023-05-10T10:56:12.031Z,2.8500
2023-05-10T10:57:20.077Z,2.2357
2023-05-10T10:58:27.954Z,3.8714
2023-05-10T10:59:36.018Z,4.4857
2023-05-10T11:00:44.114Z,3.5071
2023-05-10T11:01:52.395Z,3.4714
2023-05-10T11:03:00.378Z,4.5143
2023-05-10T11:04:08.379Z,2.0143
2023-05-10T11:05:16.575Z,2.0571
2023-05-10T11:06:24.680Z,2.9714
2023-05-10T11:07:32.605Z,2.0643
2023-05-10T11:08:40.595Z,4.1571
2023-05-10T11:09:48.661Z,3.2857
2023-05-10T11:10:56.910Z,3.0286
2023-05-10T11:12:04.844Z,1.9357
2023-05-10T11:13:12.683Z,4.1143
2023-05-10T11:14:20.733Z,3.8000
2023-05-10T11:15:28.775Z,2.4571
2023-05-10T11:16:37.011Z,3.4500
2023-05-10T11:17:45.259Z,3.3071
2023-05-10T11:18:53.091Z,2.9643
2023-05-10T11:20:01.114Z,3.0643
2023-05-10T11:21:09.341Z,3.4857
2023-05-10T11:22:17.194Z,3.3643
2023-05-10T11:23:25.367Z,2.9357
2023-05-10T11:24:33.452Z,4.6929
2023-05-10T11:25:41.644Z,2.2214
2023-05-10T11:26:49.476Z,4.1143
2023-05-10T11:27:57.448Z,3.3143
2023-05-10T11:29:05.520Z,2.4643
2023-05-10T11:30:13.647Z,3.2786
2023-05-10T11:31:21.829Z,3.1929
2023-05-10T11:32:29.819Z,3.7143
2023-05-10T11:33:37.925Z,2.3786
2023-05-10T11:34:45.849Z,3.5643
2023-05-10T11:35:53.968Z,2.9571
2023-05-10T11:37:01.984Z,3.1929
2023-05-10T11:38:10.075Z,2.2143
2023-05-10T11:39:18.054Z,2.9714
2023-05-10T11:40:26.137Z,4.2214
2023-05-10T11:41:34.394Z,2.8786
2023-05-10T11:42:42.116Z,3.3357
2023-05-10T11:43:50.136Z,2.0929
2023-05-10T11:44:58.248Z,2.1929
2023-05-10T11:46:06.633Z,2.4429
2023-05-10T11:47:15.309Z,3.4071
2023-05-10T11:48:22.589Z,3.0071
2023-05-10T11:49:30.855Z,2.7857
2023-05-10T11:50:38.631Z,2.9929
2023-05-10T11:51:46.678Z,2.3929
2023-05-10T11:52:54.801Z,2.3000
2023-05-10T11:54:02.867Z,2.5500
2023-05-10T11:55:10.859Z,2.3643
2023-05-10T11:56:18.939Z,3.4643
2023-05-10T11:57:27.020Z,3.8214
2023-05-10T11:58:34.905Z,2.6357
2023-05-10T11:59:43.345Z,2.8500
2023-05-10T12:00:51.020Z,3.9071
2023-05-10T12:01:59.177Z,2.9714
2023-05-10T12:03:07.374Z,1.9571
2023-05-10T12:04:15.445Z,2.1071
2023-05-10T12:05:23.366Z,2.8429
2023-05-10T12:06:31.468Z,4.3857
2023-05-10T12:07:39.547Z,2.5643
2023-05-10T12:08:47.520Z,3.5786
2023-05-10T12:09:55.570Z,2.6143
2023-05-10T12:11:03.646Z,2.0714
2023-05-10T12:12:11.706Z,3.1286
2023-05-10T12:13:19.649Z,3.1643
2023-05-10T12:14:27.718Z,2.2500
2023-05-10T12:15:35.755Z,2.1429
2023-05-10T12:16:43.987Z,2.5857
2023-05-10T12:17:52.075Z,2.8929
2023-05-10T12:19:00.077Z,2.6786
2023-05-10T12:20:08.088Z,4.6929
2023-05-10T12:21:16.194Z,1.9929
2023-05-10T12:22:24.224Z,2.5071
2023-05-10T12:23:32.334Z,3.4000
2023-05-10T12:24:40.384Z,2.5000
2023-05-10T12:25:48.417Z,2.2357
2023-05-10T12:26:56.425Z,2.9286
2023-05-10T12:28:04.423Z,3.3571
2023-05-10T12:29:12.428Z,5.9857
2023-05-10T12:30:20.482Z,4.7429
2023-05-10T12:31:28.836Z,3.3000
2023-05-10T12:32:36.750Z,5.0714
2023-05-10T12:33:44.798Z,4.1786
2023-05-10T12:34:52.860Z,4.4643
2023-05-10T12:36:00.894Z,3.1357
2023-05-10T12:37:08.905Z,3.6929
2023-05-10T12:38:17.077Z,3.3000
2023-05-10T12:39:25.046Z,4.5714
2023-05-10T12:40:33.221Z,4.5071
2023-05-10T12:41:43.518Z,4.1500
2023-05-10T12:42:53.999Z,4.2333
2023-05-10T12:44:02.025Z,4.1714
2023-05-10T12:45:10.069Z,2.5857
2023-05-10T12:46:18.315Z,4.2857
2023-05-10T12:47:26.442Z,2.4357
2023-05-10T12:48:34.383Z,5.1429
2023-05-10T12:49:42.475Z,5.1786
2023-05-10T12:50:50.453Z,3.8071
2023-05-10T12:51:58.517Z,3.4357
2023-05-10T12:53:06.630Z,2.2571
2023-05-10T12:54:14.818Z,4.1429
2023-05-10T12:55:22.704Z,3.5143
2023-05-10T12:56:30.854Z,3.4571
2023-05-10T12:57:38.677Z,4.0786
2023-05-10T12:58:46.760Z,2.5643
2023-05-10T12:59:54.804Z,2.9500
2023-05-10T13:01:03.172Z,5.4071
2023-05-10T13:02:11.060Z,4.8786
2023-05-10T13:03:19.285Z,3.8786
2023-05-10T13:04:27.201Z,4.0286
2023-05-10T13:05:35.285Z,3.6857
2023-05-10T13:06:43.348Z,4.3071
2023-05-10T13:07:51.472Z,4.1857
2023-05-10T13:08:59.509Z,3.6357
2023-05-10T13:10:07.586Z,2.6000
2023-05-10T13:11:15.694Z,4.6000
2023-05-10T13:12:23.537Z,3.4429
2023-05-10T13:13:31.606Z,3.5286
2023-05-10T13:14:39.623Z,3.0857
2023-05-10T13:15:47.788Z,3.2643
2023-05-10T13:16:55.973Z,3.8000
2023-05-10T13:18:04.120Z,4.5429
2023-05-10T13:19:12.256Z,2.8857
2023-05-10T13:20:20.014Z,5.9214
2023-05-10T13:21:28.079Z,4.1571
2023-05-10T13:22:40.197Z,5.0929
2023-05-10T13:23:49.098Z,4.8533
2023-05-10T13:24:57.134Z,5.4071
2023-05-10T13:26:05.088Z,4.1000
2023-05-10T13:27:13.108Z,4.9714
2023-05-10T13:28:21.176Z,4.3714
2023-05-10T13:29:29.421Z,5.8929
2023-05-10T13:30:37.418Z,2.8143
2023-05-10T13:31:45.540Z,2.5786
2023-05-10T13:32:53.575Z,2.4214
2023-05-10T13:34:01.716Z,4.9071
2023-05-10T13:35:09.548Z,2.7929
2023-05-10T13:36:17.823Z,3.4286
2023-05-10T13:37:25.808Z,4.5857
2023-05-10T13:38:33.832Z,2.7857
2023-05-10T13:39:42.057Z,4.4429
2023-05-10T13:40:49.808Z,3.0571
2023-05-10T13:41:57.852Z,3.3500
2023-05-10T13:43:05.954Z,3.0143
2023-05-10T13:44:14.263Z,3.4929
2023-05-10T13:45:22.172Z,4.1286
2023-05-10T13:46:30.328Z,3.1929
2023-05-10T13:47:38.335Z,4.2143
2023-05-10T13:48:46.350Z,4.0143
2023-05-10T13:49:54.355Z,4.8929
2023-05-10T13:51:02.490Z,3.1929
2023-05-10T13:52:10.490Z,4.4929
2023-05-10T13:53:18.533Z,4.8643
2023-05-10T13:54:26.667Z,3.6357
2023-05-10T13:55:34.527Z,3.5000
2023-05-10T13:56:42.609Z,4.2857
2023-05-10T13:57:50.653Z,5.6929
2023-05-10T13:58:58.791Z,3.8786
2023-05-10T14:00:07.019Z,3.4143
2023-05-10T14:01:15.002Z,3.1500
2023-05-10T14:02:23.082Z,3.9786
2023-05-10T14:03:31.157Z,4.3286
2023-05-10T14:04:39.123Z,4.9143
2023-05-10T14:05:47.156Z,3.7929
2023-05-10T14:06:55.355Z,3.4429
2023-05-10T14:08:03.309Z,3.2071
2023-05-10T14:09:11.395Z,4.6929
2023-05-10T14:10:19.250Z,2.7714